createdAt,value
2023-05-19T00:01:29.542Z,7.80
2023-05-19T00:03:59.061Z,7.60
2023-05-19T00:06:29.312Z,7.50
2023-05-19T00:09:07.748Z,7.50
2023-05-19T00:11:38.840Z,7.50
2023-05-19T00:14:10.271Z,7.40
2023-05-19T00:16:38.162Z,7.40
2023-05-19T00:19:06.782Z,7.30
2023-05-19T00:21:36.400Z,7.20
2023-05-19T00:24:03.654Z,7.00
2023-05-19T00:26:30.702Z,7.00
2023-05-19T00:28:57.491Z,7.00
2023-05-19T00:31:25.025Z,6.90
2023-05-19T00:33:52.358Z,6.80
2023-05-19T00:36:19.148Z,6.80
2023-05-19T00:38:45.968Z,6.80
2023-05-19T00:41:12.952Z,6.70
2023-05-19T00:43:39.803Z,6.70
2023-05-19T00:46:07.558Z,6.70
2023-05-19T00:48:34.498Z,6.80
2023-05-19T00:51:04.502Z,6.80
2023-05-19T00:53:33.508Z,6.90
2023-05-19T00:56:01.001Z,6.70
2023-05-19T00:58:30.372Z,6.70
2023-05-19T01:01:05.166Z,6.70
2023-05-19T01:03:35.198Z,6.60
2023-05-19T01:06:07.364Z,6.70
2023-05-19T01:08:36.362Z,6.60
2023-05-19T01:11:04.663Z,6.60
2023-05-19T01:13:32.872Z,6.60
2023-05-19T01:16:14.013Z,6.60
2023-05-19T01:19:05.787Z,6.50
2023-05-19T01:22:14.956Z,6.50
2023-05-19T01:24:56.716Z,6.50
2023-05-19T01:27:42.115Z,6.40
2023-05-19T01:30:26.805Z,6.40
2023-05-19T01:32:57.294Z,6.40
2023-05-19T01:35:26.264Z,6.40
2023-05-19T01:37:58.713Z,6.30
2023-05-19T01:40:28.467Z,6.40
2023-05-19T01:42:58.331Z,6.30
2023-05-19T01:45:26.589Z,6.30
2023-05-19T01:47:59.965Z,6.30
2023-05-19T01:50:27.728Z,6.30
2023-05-19T01:52:55.355Z,6.30
2023-05-19T01:55:25.737Z,6.10
2023-05-19T01:58:14.259Z,6.20
2023-05-19T02:01:07.069Z,6.20
2023-05-19T02:03:52.719Z,6.10
2023-05-19T02:06:55.434Z,6.10
2023-05-19T02:10:03.869Z,6.00
2023-05-19T02:12:40.195Z,6.00
2023-05-19T02:15:10.680Z,5.90
2023-05-19T02:17:47.707Z,5.90
2023-05-19T02:20:16.328Z,5.90
2023-05-19T02:22:43.689Z,5.90
2023-05-19T02:25:11.443Z,5.90
2023-05-19T02:27:38.948Z,5.90
2023-05-19T02:30:08.257Z,5.80
2023-05-19T02:32:36.569Z,5.80
2023-05-19T02:35:04.058Z,5.80
2023-05-19T02:37:31.265Z,5.80
2023-05-19T02:39:58.334Z,5.70
2023-05-19T02:42:25.359Z,5.70
2023-05-19T02:44:54.209Z,5.70
2023-05-19T02:47:21.172Z,5.70
2023-05-19T02:49:48.074Z,5.60
2023-05-19T02:52:14.897Z,5.70
2023-05-19T02:54:41.786Z,5.60
2023-05-19T02:57:08.593Z,5.60
2023-05-19T02:59:35.650Z,5.50
2023-05-19T03:02:02.982Z,5.50
2023-05-19T03:04:30.244Z,5.40
2023-05-19T03:07:00.349Z,5.40
2023-05-19T03:09:27.191Z,5.40
2023-05-19T03:11:54.085Z,5.40
2023-05-19T03:14:24.061Z,5.20
2023-05-19T03:16:51.386Z,5.40
2023-05-19T03:19:18.585Z,5.40
2023-05-19T03:21:45.653Z,5.40
2023-05-19T03:24:12.434Z,5.30
2023-05-19T03:26:39.409Z,5.30
2023-05-19T03:29:06.438Z,5.30
2023-05-19T03:31:33.262Z,5.30
2023-05-19T03:34:00.144Z,5.20
2023-05-19T03:36:32.256Z,5.20
2023-05-19T03:38:59.521Z,5.20
2023-05-19T03:41:26.423Z,5.10
2023-05-19T03:43:53.262Z,5.10
2023-05-19T03:46:20.051Z,5.10
2023-05-19T03:48:46.904Z,5.10
2023-05-19T03:51:13.783Z,5.10
2023-05-19T03:53:42.071Z,5.10
2023-05-19T03:56:11.689Z,5.10
2023-05-19T03:58:40.782Z,5.10
2023-05-19T04:01:10.794Z,5.10
2023-05-19T04:03:37.708Z,5.10
2023-05-19T04:06:04.686Z,5.20
2023-05-19T04:08:32.256Z,5.20
2023-05-19T04:10:59.146Z,5.40
2023-05-19T04:13:26.231Z,5.30
2023-05-19T04:15:53.493Z,5.30
2023-05-19T04:18:20.670Z,5.30
2023-05-19T04:20:47.862Z,5.40
2023-05-19T04:23:14.678Z,5.40
2023-05-19T04:25:42.223Z,5.60
2023-05-19T04:28:09.221Z,5.90
2023-05-19T04:30:37.020Z,6.10
2023-05-19T04:33:04.859Z,6.40
2023-05-19T04:35:31.927Z,6.70
2023-05-19T04:37:58.737Z,7.10
2023-05-19T04:40:25.637Z,7.50
2023-05-19T04:42:52.706Z,8.00
2023-05-19T04:45:20.209Z,8.40
2023-05-19T04:47:48.302Z,8.80
2023-05-19T04:50:16.437Z,9.40
2023-05-19T04:52:45.627Z,10.10
2023-05-19T04:55:13.424Z,10.70
2023-05-19T04:57:40.519Z,10.90
2023-05-19T05:00:10.370Z,11.10
2023-05-19T05:02:37.291Z,11.10
2023-05-19T05:05:04.561Z,11.20
2023-05-19T05:07:32.542Z,11.20
2023-05-19T05:09:59.755Z,11.40
2023-05-19T05:12:27.515Z,11.50
2023-05-19T05:14:54.671Z,11.80
2023-05-19T05:17:21.747Z,12.00
2023-05-19T05:19:48.924Z,12.20
2023-05-19T05:22:20.371Z,12.60
2023-05-19T05:24:47.507Z,12.70
2023-05-19T05:27:14.596Z,12.90
2023-05-19T05:29:41.455Z,12.90
2023-05-19T05:32:08.632Z,13.10
2023-05-19T05:34:37.648Z,13.30
2023-05-19T05:37:04.613Z,13.30
2023-05-19T05:39:31.927Z,13.30
2023-05-19T05:41:58.781Z,13.40
2023-05-19T05:44:27.615Z,13.80
2023-05-19T05:46:54.634Z,14.40
2023-05-19T05:49:21.764Z,14.60
2023-05-19T05:52:04.368Z,14.90
2023-05-19T05:54:33.334Z,15.00
2023-05-19T05:57:09.793Z,15.40
2023-05-19T05:59:39.674Z,15.80
2023-05-19T06:02:07.599Z,16.60
2023-05-19T06:04:34.563Z,17.00
2023-05-19T06:07:02.059Z,17.20
2023-05-19T06:09:30.457Z,17.50
2023-05-19T06:11:59.907Z,17.70
2023-05-19T06:14:27.373Z,17.60
2023-05-19T06:16:54.328Z,18.00
2023-05-19T06:19:21.712Z,18.30
2023-05-19T06:21:48.638Z,18.40
2023-05-19T06:24:15.481Z,18.30
2023-05-19T06:26:42.380Z,18.40
2023-05-19T06:29:09.289Z,18.60
2023-05-19T06:31:36.298Z,18.90
2023-05-19T06:34:03.394Z,19.40
2023-05-19T06:36:30.552Z,19.50
2023-05-19T06:38:57.716Z,19.70
2023-05-19T06:41:28.285Z,19.50
2023-05-19T06:44:00.236Z,19.70
2023-05-19T06:46:27.108Z,20.10
2023-05-19T06:48:53.940Z,20.00
2023-05-19T06:51:22.379Z,20.20
2023-05-19T06:53:49.592Z,20.50
2023-05-19T06:56:16.572Z,20.70
2023-05-19T06:58:43.743Z,20.80
2023-05-19T07:01:10.620Z,21.00
2023-05-19T07:03:37.874Z,21.30
2023-05-19T07:06:07.877Z,21.40
2023-05-19T07:08:37.472Z,21.60
2023-05-19T07:11:04.804Z,21.40
2023-05-19T07:13:33.144Z,21.10
2023-05-19T07:16:00.251Z,21.00
2023-05-19T07:18:27.168Z,21.00
2023-05-19T07:20:54.036Z,21.40
2023-05-19T07:23:21.179Z,21.40
2023-05-19T07:25:48.434Z,21.30
2023-05-19T07:28:15.886Z,21.40
2023-05-19T07:30:43.178Z,21.80
2023-05-19T07:33:12.629Z,22.00
2023-05-19T07:35:40.036Z,22.50
2023-05-19T07:38:07.562Z,22.60
2023-05-19T07:40:34.633Z,22.70
2023-05-19T07:43:01.602Z,22.70
2023-05-19T07:45:28.544Z,22.80
2023-05-19T07:47:55.527Z,23.00
2023-05-19T07:50:22.468Z,22.80
2023-05-19T07:52:49.431Z,22.70
2023-05-19T07:55:18.070Z,22.70
2023-05-19T07:57:45.252Z,22.30
2023-05-19T08:00:12.754Z,22.30
2023-05-19T08:02:40.257Z,22.50
2023-05-19T08:05:09.942Z,22.60
2023-05-19T08:07:37.435Z,22.60
2023-05-19T08:10:04.774Z,22.50
2023-05-19T08:12:32.597Z,22.60
2023-05-19T08:15:01.412Z,22.40
2023-05-19T08:17:29.106Z,22.30
2023-05-19T08:19:56.226Z,22.60
2023-05-19T08:22:23.379Z,22.80
2023-05-19T08:24:51.825Z,23.10
2023-05-19T08:27:19.163Z,23.30
2023-05-19T08:29:46.264Z,23.10
2023-05-19T08:32:13.564Z,22.80
2023-05-19T08:34:41.524Z,23.10
2023-05-19T08:37:11.305Z,23.10
2023-05-19T08:39:38.118Z,23.10
2023-05-19T08:42:05.674Z,23.30
2023-05-19T08:44:32.922Z,23.60
2023-05-19T08:47:12.833Z,23.20
2023-05-19T08:49:53.280Z,23.00
2023-05-19T08:52:34.764Z,23.00
2023-05-19T08:55:09.600Z,23.10
2023-05-19T08:57:38.601Z,23.10
2023-05-19T09:00:11.976Z,23.20
2023-05-19T09:02:50.428Z,23.00
2023-05-19T09:05:27.420Z,23.00
2023-05-19T09:07:55.345Z,22.90
2023-05-19T09:10:22.579Z,22.80
2023-05-19T09:12:50.435Z,22.90
2023-05-19T09:15:19.440Z,22.90
2023-05-19T09:17:48.119Z,23.00
2023-05-19T09:20:17.535Z,22.90
2023-05-19T09:22:47.595Z,22.80
2023-05-19T09:25:22.435Z,22.40
2023-05-19T09:27:50.007Z,22.50
2023-05-19T09:30:20.349Z,22.70
2023-05-19T09:32:50.431Z,22.90
2023-05-19T09:35:20.057Z,22.80
2023-05-19T09:37:46.997Z,23.10
2023-05-19T09:40:15.765Z,22.80
2023-05-19T09:42:44.044Z,22.60
2023-05-19T09:45:11.514Z,22.60
2023-05-19T09:47:39.783Z,22.70
2023-05-19T09:50:10.016Z,22.50
2023-05-19T09:52:43.740Z,22.40
2023-05-19T09:55:13.550Z,22.50
2023-05-19T09:57:41.561Z,22.90
2023-05-19T10:00:17.136Z,23.20
2023-05-19T10:02:47.217Z,22.90
2023-05-19T10:05:20.473Z,22.90
2023-05-19T10:07:54.684Z,23.00
2023-05-19T10:10:25.151Z,23.00
2023-05-19T10:12:54.308Z,22.80
2023-05-19T10:15:23.122Z,23.00
2023-05-19T10:17:50.747Z,22.90
2023-05-19T10:20:17.976Z,22.70
2023-05-19T10:22:46.270Z,22.60
2023-05-19T10:25:15.241Z,22.80
2023-05-19T10:28:07.894Z,23.10
2023-05-19T10:30:42.234Z,23.20
2023-05-19T10:33:15.376Z,23.20
2023-05-19T10:36:15.910Z,23.20
2023-05-19T10:38:52.379Z,23.30
2023-05-19T10:41:22.539Z,23.50
2023-05-19T10:44:23.377Z,23.40
2023-05-19T10:46:50.936Z,23.50
2023-05-19T10:49:24.906Z,23.30
2023-05-19T10:51:58.371Z,23.40
2023-05-19T10:54:46.956Z,22.20
2023-05-19T10:57:17.900Z,21.60
2023-05-19T10:59:45.450Z,21.20
2023-05-19T11:02:42.702Z,21.20
2023-05-19T11:05:18.435Z,21.20
2023-05-19T11:07:56.753Z,21.60
2023-05-19T11:10:25.104Z,21.70
2023-05-19T11:12:52.568Z,21.70
2023-05-19T11:15:26.052Z,21.10
2023-05-19T11:17:54.022Z,20.90
2023-05-19T11:20:26.127Z,21.30
2023-05-19T11:23:06.720Z,21.70
2023-05-19T11:26:02.892Z,22.00
2023-05-19T11:28:30.566Z,21.80
2023-05-19T11:31:00.033Z,21.80
2023-05-19T11:33:27.682Z,21.80
2023-05-19T11:36:00.049Z,22.10
2023-05-19T11:38:30.188Z,22.40
2023-05-19T11:40:57.570Z,22.80
2023-05-19T11:43:25.706Z,23.00
2023-05-19T11:45:54.981Z,23.10
2023-05-19T11:48:22.596Z,22.80
2023-05-19T11:50:50.349Z,22.30
2023-05-19T11:53:19.954Z,22.40
2023-05-19T11:55:48.996Z,22.60
2023-05-19T11:58:16.841Z,22.90
2023-05-19T12:00:46.320Z,23.00
2023-05-19T12:03:13.970Z,23.00
2023-05-19T12:05:46.037Z,22.90
2023-05-19T12:08:14.301Z,22.60
2023-05-19T12:10:41.744Z,22.50
2023-05-19T12:13:11.624Z,22.90
2023-05-19T12:15:39.515Z,23.00
2023-05-19T12:18:06.736Z,22.80
2023-05-19T12:20:36.290Z,22.70
2023-05-19T12:23:04.012Z,22.70
2023-05-19T12:25:31.731Z,22.70
2023-05-19T12:28:04.029Z,22.60
2023-05-19T12:30:35.660Z,22.60
2023-05-19T12:33:03.331Z,22.80
2023-05-19T12:35:38.909Z,22.60
2023-05-19T12:38:10.205Z,22.40
2023-05-19T12:40:38.626Z,21.90
2023-05-19T12:43:06.917Z,22.10
2023-05-19T12:45:37.491Z,22.10
2023-05-19T12:48:11.626Z,22.20
2023-05-19T12:50:39.058Z,22.30
2023-05-19T12:53:09.192Z,22.10
2023-05-19T12:55:44.046Z,22.10
2023-05-19T12:58:19.101Z,22.10
2023-05-19T13:00:47.472Z,22.40
2023-05-19T13:03:19.957Z,22.60
2023-05-19T13:05:49.143Z,22.00
2023-05-19T13:08:17.367Z,21.30
2023-05-19T13:10:46.154Z,21.10
2023-05-19T13:13:14.216Z,20.90
2023-05-19T13:15:43.913Z,20.50
2023-05-19T13:18:12.944Z,20.10
2023-05-19T13:20:41.849Z,19.90
2023-05-19T13:23:11.384Z,19.70
2023-05-19T13:25:38.446Z,19.50
2023-05-19T13:28:06.120Z,19.50
2023-05-19T13:30:35.499Z,19.90
2023-05-19T13:33:03.018Z,20.50
2023-05-19T13:35:30.820Z,20.80
2023-05-19T13:37:57.948Z,21.20
2023-05-19T13:40:26.035Z,21.10
2023-05-19T13:42:52.904Z,21.20
2023-05-19T13:45:19.715Z,21.30
2023-05-19T13:47:46.585Z,21.30
2023-05-19T13:50:13.479Z,21.20
2023-05-19T13:52:40.375Z,21.50
2023-05-19T13:55:07.910Z,21.20
2023-05-19T13:57:35.815Z,20.80
2023-05-19T14:00:04.654Z,20.20
2023-05-19T14:02:32.335Z,19.90
2023-05-19T14:04:59.575Z,19.70
2023-05-19T14:07:27.363Z,19.40
2023-05-19T14:09:54.920Z,19.30
2023-05-19T14:12:30.974Z,19.50
2023-05-19T14:15:08.483Z,19.70
2023-05-19T14:17:36.037Z,19.70
2023-05-19T14:20:03.560Z,19.70
2023-05-19T14:22:30.602Z,19.60
2023-05-19T14:24:57.513Z,19.40
2023-05-19T14:27:24.341Z,19.30
2023-05-19T14:29:51.177Z,19.30
2023-05-19T14:32:18.749Z,19.40
2023-05-19T14:34:45.669Z,19.70
2023-05-19T14:37:12.488Z,20.10
2023-05-19T14:39:39.352Z,20.40
2023-05-19T14:42:06.357Z,20.40
2023-05-19T14:44:33.538Z,20.20
2023-05-19T14:47:02.150Z,20.00
2023-05-19T14:49:29.115Z,19.90
2023-05-19T14:51:56.273Z,19.90
2023-05-19T14:54:23.323Z,20.00
2023-05-19T14:56:50.254Z,20.30
2023-05-19T14:59:17.276Z,20.40
2023-05-19T15:01:44.152Z,20.10
2023-05-19T15:04:11.224Z,19.80
2023-05-19T15:06:39.606Z,19.60
2023-05-19T15:09:06.492Z,19.40
2023-05-19T15:11:33.571Z,19.20
2023-05-19T15:14:00.656Z,19.30
2023-05-19T15:16:27.538Z,19.50
2023-05-19T15:18:54.947Z,19.60
2023-05-19T15:21:21.885Z,19.70
2023-05-19T15:23:49.318Z,19.70
2023-05-19T15:26:16.639Z,19.50
2023-05-19T15:28:43.591Z,19.40
2023-05-19T15:31:10.602Z,19.30
2023-05-19T15:33:37.485Z,19.30
2023-05-19T15:36:04.586Z,19.30
2023-05-19T15:38:36.415Z,19.30
2023-05-19T15:41:08.132Z,19.10
2023-05-19T15:43:35.266Z,19.00
2023-05-19T15:46:02.443Z,18.90
2023-05-19T15:48:29.946Z,18.90
2023-05-19T15:50:58.279Z,18.90
2023-05-19T15:53:25.943Z,19.00
2023-05-19T15:55:52.932Z,19.00
2023-05-19T15:58:19.950Z,19.10
2023-05-19T16:00:47.032Z,19.10
2023-05-19T16:03:13.975Z,19.20
2023-05-19T16:05:42.905Z,19.30
2023-05-19T16:08:09.867Z,19.40
2023-05-19T16:10:36.887Z,19.50
2023-05-19T16:13:03.913Z,19.50
2023-05-19T16:15:30.759Z,19.60
2023-05-19T16:17:57.682Z,19.60
2023-05-19T16:20:27.992Z,19.60
2023-05-19T16:22:55.566Z,19.60
2023-05-19T16:25:22.910Z,19.70
2023-05-19T16:27:50.287Z,19.70
2023-05-19T16:30:17.380Z,19.70
2023-05-19T16:32:44.365Z,19.70
2023-05-19T16:35:11.452Z,19.70
2023-05-19T16:37:38.463Z,19.50
2023-05-19T16:40:05.894Z,19.30
2023-05-19T16:42:33.151Z,19.20
2023-05-19T16:45:00.028Z,18.90
2023-05-19T16:47:26.937Z,18.70
2023-05-19T16:49:54.165Z,18.50
2023-05-19T16:52:21.202Z,18.40
2023-05-19T16:54:48.374Z,18.40
2023-05-19T16:57:15.668Z,18.40
2023-05-19T16:59:42.900Z,18.40
2023-05-19T17:02:10.150Z,18.40
2023-05-19T17:04:37.249Z,18.50
2023-05-19T17:07:04.762Z,18.60
2023-05-19T17:09:31.931Z,18.70
2023-05-19T17:11:58.986Z,18.80
2023-05-19T17:14:26.441Z,18.90
2023-05-19T17:16:53.728Z,19.00
2023-05-19T17:19:21.128Z,19.00
2023-05-19T17:21:48.190Z,19.00
2023-05-19T17:24:15.827Z,19.00
2023-05-19T17:26:43.215Z,19.00
2023-05-19T17:29:10.113Z,19.00
2023-05-19T17:31:37.416Z,18.90
2023-05-19T17:34:04.666Z,18.80
2023-05-19T17:36:31.905Z,18.70
2023-05-19T17:38:58.865Z,18.70
2023-05-19T17:41:26.432Z,18.60
2023-05-19T17:43:53.362Z,18.50
2023-05-19T17:46:20.371Z,18.50
2023-05-19T17:48:47.263Z,18.40
2023-05-19T17:51:14.357Z,18.30
2023-05-19T17:53:41.654Z,18.20
2023-05-19T17:56:11.344Z,18.20
2023-05-19T17:58:38.558Z,18.20
2023-05-19T18:01:05.686Z,18.10
2023-05-19T18:03:33.352Z,18.10
2023-05-19T18:06:01.804Z,18.00
2023-05-19T18:08:30.173Z,18.00
2023-05-19T18:10:57.918Z,18.00
2023-05-19T18:13:26.553Z,18.00
2023-05-19T18:15:53.651Z,18.00
2023-05-19T18:18:21.029Z,18.00
2023-05-19T18:20:48.417Z,17.90
2023-05-19T18:23:15.646Z,17.90
2023-05-19T18:25:50.720Z,17.90
2023-05-19T18:28:17.540Z,17.90
2023-05-19T18:30:44.678Z,17.80
2023-05-19T18:33:12.403Z,17.80
2023-05-19T18:35:39.512Z,17.70
2023-05-19T18:38:06.437Z,17.70
2023-05-19T18:40:33.742Z,17.60
2023-05-19T18:43:01.071Z,17.60
2023-05-19T18:45:28.377Z,17.50
2023-05-19T18:47:55.417Z,17.40
2023-05-19T18:50:22.677Z,17.30
2023-05-19T18:52:49.582Z,17.30
2023-05-19T18:55:16.743Z,17.20
2023-05-19T18:57:44.948Z,17.20
2023-05-19T19:00:13.698Z,17.10
2023-05-19T19:02:41.187Z,17.00
2023-05-19T19:05:09.728Z,16.90
2023-05-19T19:07:44.940Z,16.80
2023-05-19T19:10:11.919Z,16.80
2023-05-19T19:12:39.236Z,16.70
2023-05-19T19:15:07.037Z,16.60
2023-05-19T19:17:34.226Z,16.60
2023-05-19T19:20:01.446Z,16.50
2023-05-19T19:22:28.789Z,16.40
2023-05-19T19:24:59.115Z,16.40
2023-05-19T19:27:31.069Z,16.40
2023-05-19T19:29:58.706Z,16.30
2023-05-19T19:32:26.249Z,16.20
2023-05-19T19:34:53.498Z,16.20
2023-05-19T19:37:20.568Z,16.10
2023-05-19T19:39:47.822Z,16.10
2023-05-19T19:42:14.891Z,16.00
2023-05-19T19:44:41.987Z,15.90
2023-05-19T19:47:09.437Z,15.90
2023-05-19T19:49:37.634Z,15.90
2023-05-19T19:52:04.856Z,15.90
2023-05-19T19:54:31.830Z,15.80
2023-05-19T19:56:58.952Z,15.70
2023-05-19T19:59:27.004Z,15.60
2023-05-19T20:01:54.047Z,15.60
2023-05-19T20:04:21.496Z,15.60
2023-05-19T20:06:49.771Z,15.60
2023-05-19T20:09:17.207Z,15.60
2023-05-19T20:11:44.514Z,15.50
2023-05-19T20:14:11.924Z,15.50
2023-05-19T20:16:40.744Z,15.50
2023-05-19T20:19:09.400Z,15.50
2023-05-19T20:21:36.840Z,15.50
2023-05-19T20:24:04.569Z,15.50
2023-05-19T20:26:32.124Z,15.40
2023-05-19T20:28:59.424Z,15.40
2023-05-19T20:31:26.809Z,15.40
2023-05-19T20:33:54.354Z,15.30
2023-05-19T20:36:21.724Z,15.30
2023-05-19T20:38:48.729Z,15.30
2023-05-19T20:41:15.702Z,15.30
2023-05-19T20:43:42.631Z,15.40
2023-05-19T20:46:09.886Z,15.30
2023-05-19T20:48:37.045Z,15.30
2023-05-19T20:51:04.089Z,15.30
2023-05-19T20:53:31.094Z,15.30
2023-05-19T20:55:58.118Z,15.30
2023-05-19T20:58:30.083Z,15.30
2023-05-19T21:00:58.184Z,15.30
2023-05-19T21:03:27.261Z,15.30
2023-05-19T21:05:55.209Z,15.30
2023-05-19T21:08:22.725Z,15.20
2023-05-19T21:10:49.729Z,15.30
2023-05-19T21:13:18.282Z,15.30
2023-05-19T21:15:45.229Z,15.30
2023-05-19T21:18:12.642Z,15.30
2023-05-19T21:20:40.030Z,15.30
2023-05-19T21:23:06.977Z,15.30
2023-05-19T21:25:34.219Z,15.20
2023-05-19T21:28:01.695Z,15.30
2023-05-19T21:30:29.017Z,15.20
2023-05-19T21:32:55.992Z,15.20
2023-05-19T21:35:23.154Z,15.20
2023-05-19T21:37:50.110Z,15.20
2023-05-19T21:40:17.099Z,15.10
2023-05-19T21:42:44.073Z,15.10
2023-05-19T21:45:11.520Z,15.10
2023-05-19T21:47:38.479Z,15.10
2023-05-19T21:50:06.429Z,15.10
2023-05-19T21:52:33.313Z,15.00
2023-05-19T21:55:00.344Z,15.00
2023-05-19T21:57:27.485Z,15.00
2023-05-19T21:59:54.829Z,15.00
2023-05-19T22:02:21.718Z,15.00
2023-05-19T22:04:48.587Z,15.00
2023-05-19T22:07:15.470Z,15.00
2023-05-19T22:09:43.640Z,14.90
2023-05-19T22:12:10.982Z,14.90
2023-05-19T22:14:38.027Z,14.90
2023-05-19T22:17:05.006Z,14.90
2023-05-19T22:19:32.021Z,14.90
2023-05-19T22:22:09.697Z,14.80
2023-05-19T22:24:40.519Z,14.80
2023-05-19T22:27:08.279Z,14.80
2023-05-19T22:29:37.490Z,14.70
2023-05-19T22:32:06.642Z,14.70
2023-05-19T22:34:33.574Z,14.70
2023-05-19T22:37:00.497Z,14.60
2023-05-19T22:39:27.356Z,14.60
2023-05-19T22:41:54.181Z,14.60
2023-05-19T22:44:21.366Z,14.60
2023-05-19T22:46:48.224Z,14.60
2023-05-19T22:49:15.124Z,14.50
2023-05-19T22:51:42.210Z,14.50
2023-05-19T22:54:10.488Z,14.40
2023-05-19T22:56:37.337Z,14.40
2023-05-19T22:59:04.106Z,14.30
2023-05-19T23:01:31.067Z,14.20
2023-05-19T23:03:58.003Z,14.20
2023-05-19T23:06:25.079Z,14.10
2023-05-19T23:09:03.463Z,14.00
2023-05-19T23:11:30.744Z,14.00
2023-05-19T23:13:57.544Z,13.90
2023-05-19T23:16:24.410Z,13.90
2023-05-19T23:18:51.384Z,13.80
2023-05-19T23:21:18.373Z,13.70
2023-05-19T23:23:45.312Z,13.70
2023-05-19T23:26:14.848Z,13.70
2023-05-19T23:28:42.686Z,13.60
2023-05-19T23:31:09.832Z,13.60
2023-05-19T23:33:36.715Z,13.60
2023-05-19T23:36:10.691Z,13.60
2023-05-19T23:38:37.779Z,13.50
2023-05-19T23:41:05.158Z,13.50
2023-05-19T23:43:35.019Z,13.40
2023-05-19T23:46:01.957Z,13.40
2023-05-19T23:48:29.472Z,13.40
2023-05-19T23:50:57.560Z,13.30
2023-05-19T23:53:25.051Z,13.30
2023-05-19T23:55:51.882Z,13.20
2023-05-19T23:58:19.105Z,13.20
